sensor_id;sensor_type;location;lat;lon;timestamp;P1;durP1;ratioP1;P2;durP2;ratioP2
12350;SDS011;6240;51.538;7.696;2022-12-05T00:02:18;19.43;;;14.00;;
12350;SDS011;6240;51.538;7.696;2022-12-05T00:04:45;23.07;;;14.43;;
12350;SDS011;6240;51.538;7.696;2022-12-05T00:07:12;19.97;;;14.53;;
12350;SDS011;6240;51.538;7.696;2022-12-05T00:09:41;21.50;;;14.37;;
12350;SDS011;6240;51.538;7.696;2022-12-05T00:12:08;21.90;;;14.53;;
12350;SDS011;6240;51.538;7.696;2022-12-05T00:14:35;22.03;;;14.83;;
12350;SDS011;6240;51.538;7.696;2022-12-05T00:17:02;20.17;;;15.07;;
12350;SDS011;6240;51.538;7.696;2022-12-05T00:19:30;20.60;;;14.53;;
12350;SDS011;6240;51.538;7.696;2022-12-05T00:21:57;23.77;;;16.53;;
12350;SDS011;6240;51.538;7.696;2022-12-05T00:24:24;27.40;;;18.60;;
12350;SDS011;6240;51.538;7.696;2022-12-05T00:26:53;25.93;;;18.70;;
12350;SDS011;6240;51.538;7.696;2022-12-05T00:29:20;23.90;;;17.07;;
12350;SDS011;6240;51.538;7.696;2022-12-05T00:31:47;21.53;;;16.27;;
12350;SDS011;6240;51.538;7.696;2022-12-05T00:34:14;21.87;;;15.10;;
12350;SDS011;6240;51.538;7.696;2022-12-05T00:36:41;21.20;;;14.80;;
12350;SDS011;6240;51.538;7.696;2022-12-05T00:39:09;24.60;;;15.40;;
12350;SDS011;6240;51.538;7.696;2022-12-05T00:41:38;23.90;;;15.07;;
12350;SDS011;6240;51.538;7.696;2022-12-05T00:44:07;21.53;;;15.03;;
12350;SDS011;6240;51.538;7.696;2022-12-05T00:46:34;20.53;;;14.93;;
12350;SDS011;6240;51.538;7.696;2022-12-05T00:49:03;23.40;;;15.17;;
12350;SDS011;6240;51.538;7.696;2022-12-05T00:51:31;20.47;;;14.70;;
12350;SDS011;6240;51.538;7.696;2022-12-05T00:53:59;21.97;;;15.37;;
12350;SDS011;6240;51.538;7.696;2022-12-05T00:56:27;23.07;;;16.17;;
12350;SDS011;6240;51.538;7.696;2022-12-05T00:58:54;24.57;;;15.47;;
12350;SDS011;6240;51.538;7.696;2022-12-05T01:01:24;20.73;;;14.37;;
12350;SDS011;6240;51.538;7.696;2022-12-05T01:03:52;23.00;;;15.10;;
12350;SDS011;6240;51.538;7.696;2022-12-05T01:06:19;23.30;;;14.97;;
12350;SDS011;6240;51.538;7.696;2022-12-05T01:08:47;27.07;;;15.40;;
12350;SDS011;6240;51.538;7.696;2022-12-05T01:11:15;20.37;;;15.10;;
12350;SDS011;6240;51.538;7.696;2022-12-05T01:13:42;24.60;;;15.70;;
12350;SDS011;6240;51.538;7.696;2022-12-05T01:16:12;25.03;;;14.77;;
12350;SDS011;6240;51.538;7.696;2022-12-05T01:18:41;23.77;;;14.83;;
12350;SDS011;6240;51.538;7.696;2022-12-05T01:21:08;24.43;;;15.90;;
12350;SDS011;6240;51.538;7.696;2022-12-05T01:23:36;21.27;;;14.60;;
12350;SDS011;6240;51.538;7.696;2022-12-05T01:26:04;22.80;;;14.60;;
12350;SDS011;6240;51.538;7.696;2022-12-05T01:28:32;25.10;;;15.83;;
12350;SDS011;6240;51.538;7.696;2022-12-05T01:31:00;19.87;;;14.00;;
12350;SDS011;6240;51.538;7.696;2022-12-05T01:33:29;24.77;;;14.27;;
12350;SDS011;6240;51.538;7.696;2022-12-05T01:35:58;21.60;;;14.63;;
12350;SDS011;6240;51.538;7.696;2022-12-05T01:38:25;19.80;;;14.00;;
12350;SDS011;6240;51.538;7.696;2022-12-05T01:40:58;21.03;;;14.30;;
12350;SDS011;6240;51.538;7.696;2022-12-05T01:43:25;20.47;;;13.93;;
12350;SDS011;6240;51.538;7.696;2022-12-05T01:45:52;22.50;;;14.60;;
12350;SDS011;6240;51.538;7.696;2022-12-05T01:48:20;21.70;;;14.23;;
12350;SDS011;6240;51.538;7.696;2022-12-05T01:50:48;24.80;;;14.90;;
12350;SDS011;6240;51.538;7.696;2022-12-05T01:53:17;19.97;;;13.63;;
12350;SDS011;6240;51.538;7.696;2022-12-05T01:55:45;22.67;;;14.93;;
12350;SDS011;6240;51.538;7.696;2022-12-05T01:58:13;23.03;;;14.73;;
12350;SDS011;6240;51.538;7.696;2022-12-05T02:00:41;20.27;;;14.10;;
12350;SDS011;6240;51.538;7.696;2022-12-05T02:03:09;23.10;;;14.47;;
12350;SDS011;6240;51.538;7.696;2022-12-05T02:05:37;23.73;;;15.70;;
12350;SDS011;6240;51.538;7.696;2022-12-05T02:08:05;21.20;;;14.40;;
12350;SDS011;6240;51.538;7.696;2022-12-05T02:10:35;20.10;;;14.30;;
12350;SDS011;6240;51.538;7.696;2022-12-05T02:13:11;22.80;;;14.60;;
12350;SDS011;6240;51.538;7.696;2022-12-05T02:15:45;22.97;;;14.30;;
12350;SDS011;6240;51.538;7.696;2022-12-05T02:18:20;20.33;;;13.97;;
12350;SDS011;6240;51.538;7.696;2022-12-05T02:20:57;25.43;;;14.20;;
12350;SDS011;6240;51.538;7.696;2022-12-05T02:26:22;21.27;;;13.70;;
12350;SDS011;6240;51.538;7.696;2022-12-05T02:29:06;22.83;;;15.40;;
12350;SDS011;6240;51.538;7.696;2022-12-05T02:31:43;21.30;;;14.63;;
12350;SDS011;6240;51.538;7.696;2022-12-05T02:34:14;20.93;;;14.07;;
12350;SDS011;6240;51.538;7.696;2022-12-05T02:36:44;23.47;;;14.97;;
12350;SDS011;6240;51.538;7.696;2022-12-05T02:39:15;19.53;;;14.60;;
12350;SDS011;6240;51.538;7.696;2022-12-05T02:41:46;21.53;;;15.00;;
12350;SDS011;6240;51.538;7.696;2022-12-05T02:44:15;23.07;;;14.13;;
12350;SDS011;6240;51.538;7.696;2022-12-05T02:46:45;19.80;;;13.47;;
12350;SDS011;6240;51.538;7.696;2022-12-05T02:49:14;21.60;;;14.43;;
12350;SDS011;6240;51.538;7.696;2022-12-05T02:51:43;19.20;;;13.93;;
12350;SDS011;6240;51.538;7.696;2022-12-05T02:54:12;23.50;;;14.73;;
12350;SDS011;6240;51.538;7.696;2022-12-05T02:56:41;23.27;;;14.37;;
12350;SDS011;6240;51.538;7.696;2022-12-05T02:59:10;22.07;;;14.00;;
12350;SDS011;6240;51.538;7.696;2022-12-05T03:01:37;19.87;;;14.20;;
12350;SDS011;6240;51.538;7.696;2022-12-05T03:04:06;22.57;;;14.27;;
12350;SDS011;6240;51.538;7.696;2022-12-05T03:06:35;21.47;;;13.27;;
12350;SDS011;6240;51.538;7.696;2022-12-05T03:09:04;22.43;;;13.70;;
12350;SDS011;6240;51.538;7.696;2022-12-05T03:11:36;19.03;;;12.90;;
12350;SDS011;6240;51.538;7.696;2022-12-05T03:14:04;18.83;;;13.17;;
12350;SDS011;6240;51.538;7.696;2022-12-05T03:16:34;21.13;;;14.03;;
12350;SDS011;6240;51.538;7.696;2022-12-05T03:19:04;19.43;;;13.23;;
12350;SDS011;6240;51.538;7.696;2022-12-05T03:21:34;20.20;;;13.80;;
12350;SDS011;6240;51.538;7.696;2022-12-05T03:24:03;18.70;;;12.97;;
12350;SDS011;6240;51.538;7.696;2022-12-05T03:26:36;21.93;;;14.73;;
12350;SDS011;6240;51.538;7.696;2022-12-05T03:29:12;21.87;;;14.17;;
12350;SDS011;6240;51.538;7.696;2022-12-05T03:31:43;23.80;;;14.57;;
12350;SDS011;6240;51.538;7.696;2022-12-05T03:34:13;19.13;;;14.30;;
12350;SDS011;6240;51.538;7.696;2022-12-05T03:36:43;21.83;;;14.27;;
12350;SDS011;6240;51.538;7.696;2022-12-05T03:39:12;20.67;;;13.40;;
12350;SDS011;6240;51.538;7.696;2022-12-05T03:41:44;20.43;;;14.00;;
12350;SDS011;6240;51.538;7.696;2022-12-05T03:44:16;22.27;;;13.77;;
12350;SDS011;6240;51.538;7.696;2022-12-05T03:46:46;21.17;;;14.37;;
12350;SDS011;6240;51.538;7.696;2022-12-05T03:49:16;22.27;;;14.23;;
12350;SDS011;6240;51.538;7.696;2022-12-05T03:51:48;22.20;;;13.87;;
12350;SDS011;6240;51.538;7.696;2022-12-05T03:54:20;22.87;;;14.60;;
12350;SDS011;6240;51.538;7.696;2022-12-05T03:56:49;18.63;;;13.23;;
12350;SDS011;6240;51.538;7.696;2022-12-05T03:59:21;21.70;;;14.00;;
12350;SDS011;6240;51.538;7.696;2022-12-05T04:01:49;24.37;;;16.23;;
12350;SDS011;6240;51.538;7.696;2022-12-05T04:04:20;23.33;;;15.93;;
12350;SDS011;6240;51.538;7.696;2022-12-05T04:06:52;23.10;;;15.27;;
12350;SDS011;6240;51.538;7.696;2022-12-05T04:09:21;21.80;;;14.23;;
12350;SDS011;6240;51.538;7.696;2022-12-05T04:11:50;25.43;;;15.60;;
12350;SDS011;6240;51.538;7.696;2022-12-05T04:14:21;24.50;;;14.90;;
12350;SDS011;6240;51.538;7.696;2022-12-05T04:16:52;24.33;;;16.07;;
12350;SDS011;6240;51.538;7.696;2022-12-05T04:19:28;25.00;;;16.27;;
12350;SDS011;6240;51.538;7.696;2022-12-05T04:22:18;23.40;;;15.20;;
12350;SDS011;6240;51.538;7.696;2022-12-05T04:24:45;23.87;;;15.00;;
12350;SDS011;6240;51.538;7.696;2022-12-05T04:27:32;21.37;;;14.10;;
12350;SDS011;6240;51.538;7.696;2022-12-05T04:30:04;25.17;;;15.07;;
12350;SDS011;6240;51.538;7.696;2022-12-05T04:32:35;25.53;;;15.40;;
12350;SDS011;6240;51.538;7.696;2022-12-05T04:35:05;22.27;;;15.43;;
12350;SDS011;6240;51.538;7.696;2022-12-05T04:37:36;20.50;;;13.90;;
12350;SDS011;6240;51.538;7.696;2022-12-05T04:40:07;19.87;;;13.50;;
12350;SDS011;6240;51.538;7.696;2022-12-05T04:42:35;24.83;;;13.87;;
12350;SDS011;6240;51.538;7.696;2022-12-05T04:45:04;21.20;;;14.57;;
12350;SDS011;6240;51.538;7.696;2022-12-05T04:47:35;19.60;;;13.80;;
12350;SDS011;6240;51.538;7.696;2022-12-05T04:50:03;19.87;;;13.80;;
12350;SDS011;6240;51.538;7.696;2022-12-05T04:52:32;20.50;;;13.53;;
12350;SDS011;6240;51.538;7.696;2022-12-05T04:55:02;20.67;;;13.20;;
12350;SDS011;6240;51.538;7.696;2022-12-05T04:57:34;19.23;;;13.17;;
12350;SDS011;6240;51.538;7.696;2022-12-05T05:00:03;18.80;;;12.63;;
12350;SDS011;6240;51.538;7.696;2022-12-05T05:02:31;20.53;;;13.40;;
12350;SDS011;6240;51.538;7.696;2022-12-05T05:04:59;18.90;;;12.77;;
12350;SDS011;6240;51.538;7.696;2022-12-05T05:07:28;21.67;;;13.20;;
12350;SDS011;6240;51.538;7.696;2022-12-05T05:09:55;20.70;;;12.37;;
12350;SDS011;6240;51.538;7.696;2022-12-05T05:12:24;19.97;;;12.50;;
12350;SDS011;6240;51.538;7.696;2022-12-05T05:14:51;19.87;;;13.47;;
12350;SDS011;6240;51.538;7.696;2022-12-05T05:17:18;21.30;;;12.70;;
12350;SDS011;6240;51.538;7.696;2022-12-05T05:19:45;17.03;;;12.27;;
12350;SDS011;6240;51.538;7.696;2022-12-05T05:22:13;18.67;;;12.63;;
12350;SDS011;6240;51.538;7.696;2022-12-05T05:24:40;20.03;;;12.43;;
12350;SDS011;6240;51.538;7.696;2022-12-05T05:27:07;18.70;;;12.20;;
12350;SDS011;6240;51.538;7.696;2022-12-05T05:29:36;19.33;;;12.80;;
12350;SDS011;6240;51.538;7.696;2022-12-05T05:32:03;20.93;;;12.77;;
12350;SDS011;6240;51.538;7.696;2022-12-05T05:34:30;19.83;;;12.80;;
12350;SDS011;6240;51.538;7.696;2022-12-05T05:36:58;19.93;;;12.43;;
12350;SDS011;6240;51.538;7.696;2022-12-05T05:39:25;17.13;;;11.93;;
12350;SDS011;6240;51.538;7.696;2022-12-05T05:41:54;20.30;;;12.27;;
12350;SDS011;6240;51.538;7.696;2022-12-05T05:44:21;20.53;;;12.53;;
12350;SDS011;6240;51.538;7.696;2022-12-05T05:46:50;18.83;;;12.83;;
12350;SDS011;6240;51.538;7.696;2022-12-05T05:49:17;17.73;;;12.00;;
12350;SDS011;6240;51.538;7.696;2022-12-05T05:51:45;16.60;;;11.57;;
12350;SDS011;6240;51.538;7.696;2022-12-05T05:54:12;16.60;;;11.33;;
12350;SDS011;6240;51.538;7.696;2022-12-05T05:56:39;18.73;;;12.20;;
12350;SDS011;6240;51.538;7.696;2022-12-05T05:59:06;16.90;;;11.43;;
12350;SDS011;6240;51.538;7.696;2022-12-05T06:01:34;16.53;;;11.90;;
12350;SDS011;6240;51.538;7.696;2022-12-05T06:04:02;12.87;;;10.43;;
12350;SDS011;6240;51.538;7.696;2022-12-05T06:06:30;16.53;;;12.03;;
12350;SDS011;6240;51.538;7.696;2022-12-05T06:08:57;16.33;;;11.47;;
12350;SDS011;6240;51.538;7.696;2022-12-05T06:11:25;16.97;;;10.97;;
12350;SDS011;6240;51.538;7.696;2022-12-05T06:13:53;16.43;;;12.03;;
12350;SDS011;6240;51.538;7.696;2022-12-05T06:16:25;17.47;;;11.33;;
12350;SDS011;6240;51.538;7.696;2022-12-05T06:18:53;14.90;;;10.40;;
12350;SDS011;6240;51.538;7.696;2022-12-05T06:21:22;15.37;;;11.00;;
12350;SDS011;6240;51.538;7.696;2022-12-05T06:23:49;13.63;;;10.53;;
12350;SDS011;6240;51.538;7.696;2022-12-05T06:26:17;15.43;;;10.73;;
12350;SDS011;6240;51.538;7.696;2022-12-05T06:28:45;16.53;;;10.93;;
12350;SDS011;6240;51.538;7.696;2022-12-05T06:31:13;14.60;;;10.67;;
12350;SDS011;6240;51.538;7.696;2022-12-05T06:33:41;15.97;;;11.17;;
12350;SDS011;6240;51.538;7.696;2022-12-05T06:36:10;18.73;;;12.27;;
12350;SDS011;6240;51.538;7.696;2022-12-05T06:38:40;17.93;;;10.93;;
12350;SDS011;6240;51.538;7.696;2022-12-05T06:41:11;15.83;;;11.17;;
12350;SDS011;6240;51.538;7.696;2022-12-05T06:43:42;16.53;;;11.00;;
12350;SDS011;6240;51.538;7.696;2022-12-05T06:46:13;16.90;;;11.67;;
12350;SDS011;6240;51.538;7.696;2022-12-05T06:48:41;15.23;;;10.93;;
12350;SDS011;6240;51.538;7.696;2022-12-05T06:51:09;15.33;;;10.63;;
12350;SDS011;6240;51.538;7.696;2022-12-05T06:53:40;16.70;;;12.13;;
12350;SDS011;6240;51.538;7.696;2022-12-05T06:56:09;15.70;;;10.87;;
12350;SDS011;6240;51.538;7.696;2022-12-05T06:58:36;15.17;;;11.30;;
12350;SDS011;6240;51.538;7.696;2022-12-05T07:01:04;15.20;;;11.03;;
12350;SDS011;6240;51.538;7.696;2022-12-05T07:03:49;15.40;;;11.20;;
12350;SDS011;6240;51.538;7.696;2022-12-05T07:06:16;16.73;;;11.27;;
12350;SDS011;6240;51.538;7.696;2022-12-05T07:08:45;16.57;;;11.83;;
12350;SDS011;6240;51.538;7.696;2022-12-05T07:11:12;15.37;;;10.93;;
12350;SDS011;6240;51.538;7.696;2022-12-05T07:13:39;16.83;;;11.30;;
12350;SDS011;6240;51.538;7.696;2022-12-05T07:16:07;16.60;;;11.47;;
12350;SDS011;6240;51.538;7.696;2022-12-05T07:18:34;15.23;;;11.47;;
12350;SDS011;6240;51.538;7.696;2022-12-05T07:21:01;17.77;;;11.67;;
12350;SDS011;6240;51.538;7.696;2022-12-05T07:23:29;14.93;;;11.20;;
12350;SDS011;6240;51.538;7.696;2022-12-05T07:25:58;15.83;;;10.67;;
12350;SDS011;6240;51.538;7.696;2022-12-05T07:28:25;16.83;;;11.23;;
12350;SDS011;6240;51.538;7.696;2022-12-05T07:30:58;15.43;;;10.53;;
12350;SDS011;6240;51.538;7.696;2022-12-05T07:33:25;15.70;;;11.10;;
12350;SDS011;6240;51.538;7.696;2022-12-05T07:35:57;15.03;;;11.57;;
12350;SDS011;6240;51.538;7.696;2022-12-05T07:38:24;15.93;;;10.93;;
12350;SDS011;6240;51.538;7.696;2022-12-05T07:40:52;15.83;;;10.30;;
12350;SDS011;6240;51.538;7.696;2022-12-05T07:43:20;14.60;;;10.47;;
12350;SDS011;6240;51.538;7.696;2022-12-05T07:45:47;14.10;;;10.53;;
12350;SDS011;6240;51.538;7.696;2022-12-05T07:48:15;15.93;;;11.60;;
12350;SDS011;6240;51.538;7.696;2022-12-05T07:50:42;13.73;;;10.53;;
12350;SDS011;6240;51.538;7.696;2022-12-05T07:53:09;15.23;;;11.77;;
12350;SDS011;6240;51.538;7.696;2022-12-05T07:55:37;15.60;;;11.20;;
12350;SDS011;6240;51.538;7.696;2022-12-05T07:58:04;14.23;;;11.00;;
12350;SDS011;6240;51.538;7.696;2022-12-05T08:00:33;15.50;;;11.10;;
12350;SDS011;6240;51.538;7.696;2022-12-05T08:03:00;16.33;;;10.17;;
12350;SDS011;6240;51.538;7.696;2022-12-05T08:05:28;14.93;;;10.60;;
12350;SDS011;6240;51.538;7.696;2022-12-05T08:07:55;13.70;;;10.43;;
12350;SDS011;6240;51.538;7.696;2022-12-05T08:10:22;14.47;;;10.20;;
12350;SDS011;6240;51.538;7.696;2022-12-05T08:12:50;16.97;;;10.77;;
12350;SDS011;6240;51.538;7.696;2022-12-05T08:15:17;13.63;;;9.93;;
12350;SDS011;6240;51.538;7.696;2022-12-05T08:17:45;14.47;;;9.47;;
12350;SDS011;6240;51.538;7.696;2022-12-05T08:20:13;14.30;;;10.33;;
12350;SDS011;6240;51.538;7.696;2022-12-05T08:22:40;17.17;;;11.90;;
12350;SDS011;6240;51.538;7.696;2022-12-05T08:25:08;18.77;;;13.07;;
12350;SDS011;6240;51.538;7.696;2022-12-05T08:27:35;17.23;;;11.83;;
12350;SDS011;6240;51.538;7.696;2022-12-05T08:30:03;16.43;;;11.40;;
12350;SDS011;6240;51.538;7.696;2022-12-05T08:32:33;15.30;;;10.90;;
12350;SDS011;6240;51.538;7.696;2022-12-05T08:35:01;14.43;;;10.27;;
12350;SDS011;6240;51.538;7.696;2022-12-05T08:37:30;12.13;;;9.23;;
12350;SDS011;6240;51.538;7.696;2022-12-05T08:40:00;11.60;;;9.57;;
12350;SDS011;6240;51.538;7.696;2022-12-05T08:42:27;13.50;;;9.90;;
12350;SDS011;6240;51.538;7.696;2022-12-05T08:44:55;15.83;;;9.70;;
12350;SDS011;6240;51.538;7.696;2022-12-05T08:47:22;14.23;;;10.03;;
12350;SDS011;6240;51.538;7.696;2022-12-05T08:49:50;11.90;;;9.27;;
12350;SDS011;6240;51.538;7.696;2022-12-05T08:52:18;12.30;;;9.27;;
12350;SDS011;6240;51.538;7.696;2022-12-05T08:54:46;11.40;;;9.13;;
12350;SDS011;6240;51.538;7.696;2022-12-05T08:57:14;11.93;;;9.43;;
12350;SDS011;6240;51.538;7.696;2022-12-05T08:59:41;12.40;;;9.27;;
12350;SDS011;6240;51.538;7.696;2022-12-05T09:02:08;12.90;;;9.53;;
12350;SDS011;6240;51.538;7.696;2022-12-05T09:04:36;11.63;;;9.33;;
12350;SDS011;6240;51.538;7.696;2022-12-05T09:07:03;12.00;;;9.13;;
12350;SDS011;6240;51.538;7.696;2022-12-05T09:09:33;13.27;;;9.60;;
12350;SDS011;6240;51.538;7.696;2022-12-05T09:12:00;12.80;;;9.70;;
12350;SDS011;6240;51.538;7.696;2022-12-05T09:14:27;11.80;;;9.40;;
12350;SDS011;6240;51.538;7.696;2022-12-05T09:16:57;13.50;;;10.17;;
12350;SDS011;6240;51.538;7.696;2022-12-05T09:19:25;12.57;;;10.07;;
12350;SDS011;6240;51.538;7.696;2022-12-05T09:21:52;12.60;;;10.37;;
12350;SDS011;6240;51.538;7.696;2022-12-05T09:24:20;16.33;;;10.00;;
12350;SDS011;6240;51.538;7.696;2022-12-05T09:26:49;13.00;;;10.00;;
12350;SDS011;6240;51.538;7.696;2022-12-05T09:29:16;13.10;;;9.27;;
12350;SDS011;6240;51.538;7.696;2022-12-05T09:31:44;10.07;;;8.60;;
12350;SDS011;6240;51.538;7.696;2022-12-05T09:34:11;11.00;;;9.50;;
12350;SDS011;6240;51.538;7.696;2022-12-05T09:36:39;12.57;;;9.53;;
12350;SDS011;6240;51.538;7.696;2022-12-05T09:39:06;11.50;;;9.03;;
12350;SDS011;6240;51.538;7.696;2022-12-05T09:41:39;10.10;;;8.70;;
12350;SDS011;6240;51.538;7.696;2022-12-05T09:44:28;11.87;;;9.33;;
12350;SDS011;6240;51.538;7.696;2022-12-05T09:47:01;10.27;;;8.70;;
12350;SDS011;6240;51.538;7.696;2022-12-05T09:49:32;11.53;;;9.97;;
12350;SDS011;6240;51.538;7.696;2022-12-05T09:52:00;11.57;;;9.73;;
12350;SDS011;6240;51.538;7.696;2022-12-05T09:54:28;10.50;;;8.90;;
12350;SDS011;6240;51.538;7.696;2022-12-05T09:56:56;12.13;;;9.60;;
12350;SDS011;6240;51.538;7.696;2022-12-05T09:59:23;11.73;;;9.00;;
12350;SDS011;6240;51.538;7.696;2022-12-05T10:01:54;11.03;;;8.83;;
12350;SDS011;6240;51.538;7.696;2022-12-05T10:04:26;10.97;;;9.43;;
12350;SDS011;6240;51.538;7.696;2022-12-05T10:06:58;12.83;;;10.67;;
12350;SDS011;6240;51.538;7.696;2022-12-05T10:09:37;11.80;;;9.83;;
12350;SDS011;6240;51.538;7.696;2022-12-05T10:12:14;11.20;;;10.00;;
12350;SDS011;6240;51.538;7.696;2022-12-05T10:14:47;12.07;;;9.30;;
12350;SDS011;6240;51.538;7.696;2022-12-05T10:17:21;12.97;;;9.87;;
12350;SDS011;6240;51.538;7.696;2022-12-05T10:19:49;11.40;;;9.90;;
12350;SDS011;6240;51.538;7.696;2022-12-05T10:22:18;12.63;;;10.27;;
12350;SDS011;6240;51.538;7.696;2022-12-05T10:24:49;11.53;;;9.60;;
12350;SDS011;6240;51.538;7.696;2022-12-05T10:27:18;11.33;;;9.80;;
12350;SDS011;6240;51.538;7.696;2022-12-05T10:29:47;12.97;;;9.23;;
12350;SDS011;6240;51.538;7.696;2022-12-05T10:32:21;11.27;;;9.30;;
12350;SDS011;6240;51.538;7.696;2022-12-05T10:34:53;12.63;;;9.73;;
12350;SDS011;6240;51.538;7.696;2022-12-05T10:37:22;14.03;;;10.00;;
12350;SDS011;6240;51.538;7.696;2022-12-05T10:39:50;12.57;;;10.10;;
12350;SDS011;6240;51.538;7.696;2022-12-05T10:42:20;10.53;;;9.43;;
12350;SDS011;6240;51.538;7.696;2022-12-05T10:44:53;11.80;;;10.07;;
12350;SDS011;6240;51.538;7.696;2022-12-05T10:47:24;12.00;;;9.40;;
12350;SDS011;6240;51.538;7.696;2022-12-05T10:49:54;11.43;;;10.00;;
12350;SDS011;6240;51.538;7.696;2022-12-05T10:52:22;12.87;;;11.00;;
12350;SDS011;6240;51.538;7.696;2022-12-05T10:54:50;12.23;;;10.00;;
12350;SDS011;6240;51.538;7.696;2022-12-05T10:57:21;14.40;;;10.80;;
12350;SDS011;6240;51.538;7.696;2022-12-05T10:59:49;12.87;;;10.23;;
12350;SDS011;6240;51.538;7.696;2022-12-05T11:02:20;12.73;;;10.10;;
12350;SDS011;6240;51.538;7.696;2022-12-05T11:04:49;12.73;;;9.87;;
12350;SDS011;6240;51.538;7.696;2022-12-05T11:07:23;12.10;;;9.60;;
12350;SDS011;6240;51.538;7.696;2022-12-05T11:09:53;12.17;;;9.37;;
12350;SDS011;6240;51.538;7.696;2022-12-05T11:12:22;10.83;;;9.17;;
12350;SDS011;6240;51.538;7.696;2022-12-05T11:14:54;12.50;;;10.20;;
12350;SDS011;6240;51.538;7.696;2022-12-05T11:17:25;11.57;;;9.93;;
12350;SDS011;6240;51.538;7.696;2022-12-05T11:20:31;12.73;;;10.83;;
12350;SDS011;6240;51.538;7.696;2022-12-05T11:23:16;12.70;;;10.60;;
12350;SDS011;6240;51.538;7.696;2022-12-05T11:25:43;14.57;;;11.37;;
12350;SDS011;6240;51.538;7.696;2022-12-05T11:30:55;18.00;;;12.70;;
12350;SDS011;6240;51.538;7.696;2022-12-05T11:33:23;18.97;;;14.43;;
12350;SDS011;6240;51.538;7.696;2022-12-05T11:35:53;16.97;;;13.37;;
12350;SDS011;6240;51.538;7.696;2022-12-05T11:38:22;18.80;;;13.17;;
12350;SDS011;6240;51.538;7.696;2022-12-05T11:40:52;17.60;;;13.30;;
12350;SDS011;6240;51.538;7.696;2022-12-05T11:46:03;17.07;;;13.37;;
12350;SDS011;6240;51.538;7.696;2022-12-05T11:51:24;20.83;;;14.27;;
12350;SDS011;6240;51.538;7.696;2022-12-05T11:53:58;16.87;;;13.87;;
12350;SDS011;6240;51.538;7.696;2022-12-05T11:56:32;16.40;;;13.50;;
12350;SDS011;6240;51.538;7.696;2022-12-05T11:59:15;16.37;;;13.20;;
12350;SDS011;6240;51.538;7.696;2022-12-05T12:01:47;18.00;;;13.53;;
12350;SDS011;6240;51.538;7.696;2022-12-05T12:07:18;16.27;;;13.87;;
12350;SDS011;6240;51.538;7.696;2022-12-05T12:09:53;18.57;;;14.07;;
12350;SDS011;6240;51.538;7.696;2022-12-05T12:12:27;18.10;;;13.33;;
12350;SDS011;6240;51.538;7.696;2022-12-05T12:14:59;16.53;;;13.50;;
12350;SDS011;6240;51.538;7.696;2022-12-05T12:17:33;14.73;;;11.87;;
12350;SDS011;6240;51.538;7.696;2022-12-05T12:20:13;17.23;;;12.77;;
12350;SDS011;6240;51.538;7.696;2022-12-05T12:22:51;13.87;;;11.37;;
12350;SDS011;6240;51.538;7.696;2022-12-05T12:25:26;16.60;;;12.33;;
12350;SDS011;6240;51.538;7.696;2022-12-05T12:27:59;13.60;;;10.87;;
12350;SDS011;6240;51.538;7.696;2022-12-05T12:30:35;14.73;;;11.50;;
12350;SDS011;6240;51.538;7.696;2022-12-05T12:33:08;14.33;;;11.63;;
12350;SDS011;6240;51.538;7.696;2022-12-05T12:35:37;12.23;;;9.83;;
12350;SDS011;6240;51.538;7.696;2022-12-05T12:38:14;12.47;;;10.07;;
12350;SDS011;6240;51.538;7.696;2022-12-05T12:40:46;11.83;;;10.57;;
12350;SDS011;6240;51.538;7.696;2022-12-05T12:43:17;12.67;;;11.10;;
12350;SDS011;6240;51.538;7.696;2022-12-05T12:46:03;12.97;;;10.57;;
12350;SDS011;6240;51.538;7.696;2022-12-05T12:48:36;10.90;;;9.77;;
12350;SDS011;6240;51.538;7.696;2022-12-05T12:51:04;10.83;;;9.73;;
12350;SDS011;6240;51.538;7.696;2022-12-05T12:56:21;11.07;;;9.73;;
12350;SDS011;6240;51.538;7.696;2022-12-05T12:58:58;12.87;;;9.83;;
12350;SDS011;6240;51.538;7.696;2022-12-05T13:01:32;10.60;;;9.50;;
12350;SDS011;6240;51.538;7.696;2022-12-05T13:04:04;11.87;;;9.17;;
12350;SDS011;6240;51.538;7.696;2022-12-05T13:06:39;10.67;;;8.80;;
12350;SDS011;6240;51.538;7.696;2022-12-05T13:09:13;9.60;;;8.13;;
12350;SDS011;6240;51.538;7.696;2022-12-05T13:11:45;11.63;;;8.70;;
12350;SDS011;6240;51.538;7.696;2022-12-05T13:14:13;8.87;;;7.90;;
12350;SDS011;6240;51.538;7.696;2022-12-05T13:16:42;9.37;;;8.40;;
12350;SDS011;6240;51.538;7.696;2022-12-05T13:19:19;9.37;;;8.27;;
12350;SDS011;6240;51.538;7.696;2022-12-05T13:21:49;9.97;;;8.60;;
12350;SDS011;6240;51.538;7.696;2022-12-05T13:24:16;9.70;;;8.20;;
12350;SDS011;6240;51.538;7.696;2022-12-05T13:26:47;9.57;;;8.57;;
12350;SDS011;6240;51.538;7.696;2022-12-05T13:29:19;7.90;;;7.10;;
12350;SDS011;6240;51.538;7.696;2022-12-05T13:31:46;9.30;;;7.57;;
12350;SDS011;6240;51.538;7.696;2022-12-05T13:34:33;8.87;;;7.93;;
12350;SDS011;6240;51.538;7.696;2022-12-05T13:37:08;8.30;;;7.40;;
12350;SDS011;6240;51.538;7.696;2022-12-05T13:39:55;9.30;;;7.70;;
12350;SDS011;6240;51.538;7.696;2022-12-05T13:42:42;10.77;;;7.87;;
12350;SDS011;6240;51.538;7.696;2022-12-05T13:45:10;10.80;;;8.93;;
12350;SDS011;6240;51.538;7.696;2022-12-05T13:47:45;8.93;;;7.87;;
12350;SDS011;6240;51.538;7.696;2022-12-05T13:50:24;9.43;;;8.37;;
12350;SDS011;6240;51.538;7.696;2022-12-05T13:52:53;10.60;;;8.97;;
12350;SDS011;6240;51.538;7.696;2022-12-05T13:55:23;10.60;;;8.50;;
12350;SDS011;6240;51.538;7.696;2022-12-05T13:57:54;9.27;;;7.77;;
12350;SDS011;6240;51.538;7.696;2022-12-05T14:00:31;10.37;;;8.30;;
12350;SDS011;6240;51.538;7.696;2022-12-05T14:03:02;10.17;;;8.10;;
12350;SDS011;6240;51.538;7.696;2022-12-05T14:11:12;8.07;;;7.27;;
12350;SDS011;6240;51.538;7.696;2022-12-05T14:13:43;8.60;;;7.30;;
12350;SDS011;6240;51.538;7.696;2022-12-05T14:22:01;8.23;;;7.03;;
12350;SDS011;6240;51.538;7.696;2022-12-05T14:24:34;8.70;;;7.50;;
12350;SDS011;6240;51.538;7.696;2022-12-05T14:27:06;8.17;;;7.37;;
12350;SDS011;6240;51.538;7.696;2022-12-05T14:29:40;8.57;;;7.53;;
12350;SDS011;6240;51.538;7.696;2022-12-05T14:32:18;8.47;;;7.60;;
12350;SDS011;6240;51.538;7.696;2022-12-05T14:34:56;8.53;;;7.50;;
12350;SDS011;6240;51.538;7.696;2022-12-05T14:37:33;8.60;;;7.50;;
12350;SDS011;6240;51.538;7.696;2022-12-05T14:40:02;9.03;;;7.80;;
12350;SDS011;6240;51.538;7.696;2022-12-05T14:42:35;10.67;;;8.67;;
12350;SDS011;6240;51.538;7.696;2022-12-05T14:47:48;9.00;;;8.10;;
12350;SDS011;6240;51.538;7.696;2022-12-05T14:50:21;9.17;;;8.20;;
12350;SDS011;6240;51.538;7.696;2022-12-05T14:55:31;9.17;;;8.13;;
12350;SDS011;6240;51.538;7.696;2022-12-05T14:57:59;10.80;;;9.70;;
12350;SDS011;6240;51.538;7.696;2022-12-05T15:00:31;9.73;;;8.57;;
12350;SDS011;6240;51.538;7.696;2022-12-05T15:03:02;9.77;;;8.53;;
12350;SDS011;6240;51.538;7.696;2022-12-05T15:05:32;10.03;;;8.77;;
12350;SDS011;6240;51.538;7.696;2022-12-05T15:07:59;12.23;;;8.73;;
12350;SDS011;6240;51.538;7.696;2022-12-05T15:10:28;10.17;;;9.13;;
12350;SDS011;6240;51.538;7.696;2022-12-05T15:12:56;12.30;;;9.00;;
12350;SDS011;6240;51.538;7.696;2022-12-05T15:15:29;10.87;;;9.70;;
12350;SDS011;6240;51.538;7.696;2022-12-05T15:17:58;15.57;;;12.97;;
12350;SDS011;6240;51.538;7.696;2022-12-05T15:20:32;13.60;;;11.43;;
12350;SDS011;6240;51.538;7.696;2022-12-05T15:23:00;12.30;;;10.77;;
12350;SDS011;6240;51.538;7.696;2022-12-05T15:25:28;13.60;;;10.67;;
12350;SDS011;6240;51.538;7.696;2022-12-05T15:27:58;14.40;;;12.50;;
12350;SDS011;6240;51.538;7.696;2022-12-05T15:30:33;12.93;;;11.27;;